Time;durP1;ratioP1;P1;durP2;ratioP2;P2;SDS_P1;SDS_P2;PMS_P1;PMS_P2;Temp;Humidity;BMP_temperature;BMP_pressure;BME280_temperature;BME280_humidity;BME280_pressure;Samples;Min_cycle;Max_cycle;Signal;HPM_P1;HPM_P2
2023/09/02 00:00:28;;;;;;;12.95;9.05;;;16.40;99.90;;;;;;5136626;22;20053;-35
2023/09/02 00:03:26;;;;;;;12.45;8.80;;;16.30;99.90;;;;;;5129378;22;20044;31
2023/09/02 00:05:53;;;;;;;13.15;8.85;;;16.20;99.90;;;;;;4994196;28;20054;-35
2023/09/02 00:08:18;;;;;;;13.95;8.88;;;16.20;99.90;;;;;;5279723;22;20041;-35
2023/09/02 00:10:44;;;;;;;11.70;9.02;;;16.20;99.90;;;;;;5021680;28;20037;-36
2023/09/02 00:13:10;;;;;;;12.45;9.38;;;16.20;99.90;;;;;;5300757;22;20440;-35
2023/09/02 00:15:35;;;;;;;13.18;9.10;;;16.20;99.90;;;;;;5022208;28;20060;-35
2023/09/02 00:18:01;;;;;;;12.70;8.63;;;16.20;99.90;;;;;;5307207;22;20564;-35
2023/09/02 00:20:27;;;;;;;12.45;8.88;;;16.20;99.90;;;;;;5023103;28;20103;-34
2023/09/02 00:22:53;;;;;;;13.00;9.43;;;16.10;99.90;;;;;;5291386;22;20121;-35
2023/09/02 00:25:18;;;;;;;14.07;10.25;;;16.10;99.90;;;;;;5036711;28;20078;-35
2023/09/02 00:30:39;;;;;;;11.65;9.05;;;16.20;99.90;;;;;;5396601;22;20020;-35
2023/09/02 00:33:05;;;;;;;10.55;8.23;;;16.20;99.90;;;;;;5040361;22;20052;-34
2023/09/02 00:35:32;;;;;;;11.93;8.88;;;16.20;99.90;;;;;;5046082;28;20045;-35
2023/09/02 00:37:57;;;;;;;11.50;8.63;;;16.20;99.90;;;;;;5316918;22;20128;-33
2023/09/02 00:40:26;;;;;;;12.20;8.35;;;16.20;99.90;;;;;;5045232;28;20465;-35
2023/09/02 00:42:53;;;;;;;14.52;9.68;;;16.20;99.90;;;;;;5297685;22;20155;-36
2023/09/02 00:45:21;;;;;;;9.55;7.90;;;16.20;99.90;;;;;;5047611;28;20513;-36
2023/09/02 00:47:50;;;;;;;12.90;8.98;;;16.20;99.90;;;;;;5273014;22;20417;-35
2023/09/02 00:50:16;;;;;;;11.38;8.32;;;16.20;99.90;;;;;;5047690;28;20587;-36
2023/09/02 00:52:44;;;;;;;12.27;9.02;;;16.20;99.90;;;;;;5221944;22;20049;-87
2023/09/02 00:55:13;;;;;;;13.18;9.48;;;16.30;99.90;;;;;;5029717;28;20053;-87
2023/09/02 00:57:41;;;;;;;12.77;8.80;;;16.20;99.90;;;;;;5030648;28;20446;-88
2023/09/02 01:00:14;;;;;;;12.55;9.10;;;16.20;99.90;;;;;;5051639;28;20138;-89
2023/09/02 01:02:40;;;;;;;12.68;8.48;;;16.20;99.90;;;;;;5187212;22;20024;-33
2023/09/02 01:05:06;;;;;;;12.10;8.55;;;16.20;99.90;;;;;;5042565;28;20057;-34
2023/09/02 01:07:34;;;;;;;11.02;8.60;;;16.20;99.90;;;;;;5309968;22;20050;-34
2023/09/02 01:10:01;;;;;;;10.55;8.00;;;16.20;99.90;;;;;;5021084;28;20045;-35
2023/09/02 01:12:27;;;;;;;13.02;8.88;;;16.20;99.90;;;;;;5274606;22;20681;-35
2023/09/02 01:14:53;;;;;;;12.43;8.23;;;16.20;99.90;;;;;;5023686;28;20049;-36
2023/09/02 01:17:18;;;;;;;12.55;8.43;;;16.20;99.90;;;;;;5226828;22;20100;-35
2023/09/02 01:19:47;;;;;;;13.18;9.93;;;16.20;99.90;;;;;;4984686;28;20525;-35
2023/09/02 01:22:33;;;;;;;12.88;7.82;;;16.20;99.90;;;;;;5259270;22;20049;-36
2023/09/02 01:28:30;;;;;;;14.90;9.65;;;16.20;99.90;;;;;;4976426;28;20057;-35
2023/09/02 01:30:56;;;;;;;12.32;9.00;;;16.20;99.90;;;;;;5070801;22;20098;-36
2023/09/02 01:33:26;;;;;;;10.63;7.95;;;16.20;99.90;;;;;;5061610;28;20500;-36
2023/09/02 01:35:52;;;;;;;12.93;8.65;;;16.20;99.90;;;;;;5317346;22;20532;-34
2023/09/02 01:38:24;;;;;;;11.88;8.75;;;16.20;99.90;;;;;;5025038;28;20045;-34
2023/09/02 01:40:52;;;;;;;12.17;8.63;;;16.20;99.90;;;;;;5234835;22;20115;-34
2023/09/02 01:43:20;;;;;;;19.30;9.05;;;16.20;99.90;;;;;;5023804;28;20560;-34
2023/09/02 01:45:47;;;;;;;12.82;8.68;;;16.20;99.90;;;;;;5256236;22;20112;-33
2023/09/02 01:48:13;;;;;;;13.32;8.32;;;16.20;99.90;;;;;;5034570;28;20045;-33
2023/09/02 01:50:44;;;;;;;12.13;8.23;;;16.20;99.90;;;;;;5073149;22;20133;-87
2023/09/02 01:53:09;;;;;;;10.15;7.80;;;16.20;99.90;;;;;;5045062;28;20207;-87
2023/09/02 01:58:04;;;;;;;12.13;8.48;;;16.20;99.90;;;;;;4993527;28;20054;-36
2023/09/02 02:00:31;;;;;;;11.40;8.88;;;16.20;99.90;;;;;;5276235;22;20068;-35
2023/09/02 02:02:58;;;;;;;12.43;8.60;;;16.20;99.90;;;;;;4994234;28;20508;-35
2023/09/02 02:05:39;;;;;;;15.13;10.63;;;16.10;99.90;;;;;;5255300;22;20045;-34
2023/09/02 02:08:14;;;;;;;13.75;9.98;;;16.10;99.90;;;;;;5040846;28;20095;-34
2023/09/02 02:10:41;;;;;;;14.68;9.55;;;16.10;99.90;;;;;;5270629;22;20053;-35
2023/09/02 02:13:07;;;;;;;12.10;9.40;;;16.10;99.90;;;;;;5016709;28;20484;-34
2023/09/02 02:15:33;;;;;;;13.30;9.88;;;16.10;99.90;;;;;;5274909;22;20136;-34
2023/09/02 02:17:58;;;;;;;12.80;9.35;;;16.10;99.90;;;;;;5024779;28;20489;-34
2023/09/02 02:20:32;;;;;;;13.55;9.73;;;16.10;99.90;;;;;;5253887;22;20226;-88
2023/09/02 02:22:58;;;;;;;14.85;10.15;;;16.10;99.90;;;;;;4998713;28;20529;-90
2023/09/02 02:25:26;;;;;;;13.52;9.15;;;16.10;99.90;;;;;;5010399;28;20514;-89
2023/09/02 02:27:55;;;;;;;13.38;9.52;;;16.10;99.90;;;;;;5002788;28;20104;-90
2023/09/02 02:30:20;;;;;;;13.82;9.60;;;16.10;99.90;;;;;;5007810;28;20052;-88
2023/09/02 02:32:46;;;;;;;12.57;8.57;;;16.00;99.90;;;;;;5011218;28;20054;-88
2023/09/02 02:40:35;;;;;;;12.35;8.95;;;16.00;99.90;;;;;;5108450;22;20141;-34
2023/09/02 02:45:37;;;;;;;13.50;10.15;;;16.00;99.90;;;;;;5009771;23;20050;-35
2023/09/02 02:50:35;;;;;;;15.35;11.02;;;16.00;99.90;;;;;;4966139;28;20113;-33
2023/09/02 02:55:28;;;;;;;14.57;10.57;;;16.00;99.90;;;;;;5016006;28;20053;-35
2023/09/02 02:57:56;;;;;;;14.60;11.05;;;16.00;99.90;;;;;;5032164;22;20076;-87
2023/09/02 03:00:24;;;;;;;14.27;10.40;;;16.00;99.90;;;;;;4994734;28;20057;-86
2023/09/02 03:02:53;;;;;;;14.98;11.27;;;16.00;99.90;;;;;;5022210;28;20590;-86
2023/09/02 03:05:20;;;;;;;15.80;10.10;;;16.10;99.90;;;;;;5029817;28;20072;-91
2023/09/02 03:07:47;;;;;;;14.55;10.75;;;16.10;99.90;;;;;;5016917;28;20069;-87
2023/09/02 03:10:13;;;;;;;14.85;11.13;;;16.10;99.90;;;;;;5142497;22;20045;-34
2023/09/02 03:12:39;;;;;;;13.88;10.07;;;16.10;99.90;;;;;;5188645;22;20190;-34
2023/09/02 03:15:05;;;;;;;13.18;10.10;;;16.10;99.90;;;;;;5018729;28;20421;-35
2023/09/02 03:17:31;;;;;;;13.27;9.48;;;16.10;99.90;;;;;;5283189;22;21731;-36
2023/09/02 03:19:57;;;;;;;12.70;9.80;;;16.10;99.90;;;;;;5043911;28;20615;-36
2023/09/02 03:22:22;;;;;;;13.23;10.48;;;16.00;99.90;;;;;;5084341;22;20052;-34
2023/09/02 03:24:54;;;;;;;14.38;9.95;;;16.00;99.90;;;;;;5315673;22;20509;-36
2023/09/02 03:27:20;;;;;;;13.20;9.63;;;16.00;99.90;;;;;;5081644;22;20081;-35
2023/09/02 03:29:51;;;;;;;12.77;9.35;;;16.00;99.90;;;;;;5043730;28;20069;-36
2023/09/02 03:32:17;;;;;;;14.27;10.38;;;15.90;99.90;;;;;;5304045;22;20067;-35
2023/09/02 03:34:43;;;;;;;13.93;9.95;;;15.90;99.90;;;;;;5019189;28;20053;-35
2023/09/02 03:37:08;;;;;;;14.45;10.52;;;15.90;99.90;;;;;;5231072;22;20061;-36
2023/09/02 03:39:34;;;;;;;15.82;10.90;;;15.90;99.90;;;;;;5013188;28;20091;-35
2023/09/02 03:42:00;;;;;;;14.18;10.40;;;15.90;99.90;;;;;;5141704;22;20118;-35
2023/09/02 03:44:26;;;;;;;15.40;11.18;;;15.90;99.90;;;;;;5036455;28;20399;-34
2023/09/02 03:46:52;;;;;;;15.80;10.55;;;16.00;99.90;;;;;;5316581;22;20158;-34
2023/09/02 03:49:17;;;;;;;15.73;11.45;;;15.90;99.90;;;;;;5035192;28;20136;-34
2023/09/02 03:51:43;;;;;;;16.15;11.43;;;15.90;99.90;;;;;;5275532;22;20690;-34
2023/09/02 03:54:09;;;;;;;16.17;10.65;;;16.00;99.90;;;;;;5013643;28;20661;-34
2023/09/02 03:56:39;;;;;;;16.08;10.60;;;16.00;99.90;;;;;;5292515;22;20504;-35
2023/09/02 03:59:06;;;;;;;13.48;10.38;;;16.00;99.90;;;;;;5016370;28;20381;-35
2023/09/02 04:01:31;;;;;;;15.32;11.98;;;15.90;99.90;;;;;;5263708;22;20502;-35
2023/09/02 04:03:57;;;;;;;16.90;11.07;;;15.90;99.90;;;;;;4994751;28;20064;-35
2023/09/02 04:06:23;;;;;;;15.30;11.60;;;15.90;99.90;;;;;;5275989;22;20111;-33
2023/09/02 04:08:48;;;;;;;17.15;12.02;;;15.90;99.90;;;;;;5042320;28;20809;-34
2023/09/02 04:11:15;;;;;;;14.23;11.25;;;15.90;99.90;;;;;;5292905;22;20497;-35
2023/09/02 04:13:41;;;;;;;16.65;13.07;;;15.90;99.90;;;;;;5029152;28;20050;-35
2023/09/02 04:16:10;;;;;;;14.43;10.07;;;15.90;99.90;;;;;;5383667;22;20140;-34
2023/09/02 04:18:35;;;;;;;13.45;10.02;;;15.90;99.90;;;;;;5025312;28;20045;-34
2023/09/02 04:21:02;;;;;;;17.92;12.38;;;15.90;99.90;;;;;;5183901;22;20063;-85
2023/09/02 04:23:29;;;;;;;15.65;11.60;;;15.90;99.90;;;;;;5071748;28;20087;-84
2023/09/02 04:25:57;;;;;;;16.20;11.38;;;15.90;99.90;;;;;;5086089;22;20152;-35
2023/09/02 04:28:23;;;;;;;15.93;10.95;;;15.80;99.90;;;;;;5044377;28;20044;-35
2023/09/02 04:30:49;;;;;;;14.63;11.32;;;15.80;99.90;;;;;;5186855;22;20140;-35
2023/09/02 04:33:16;;;;;;;21.42;13.65;;;15.80;99.90;;;;;;5029393;28;20057;-35
2023/09/02 04:35:44;;;;;;;14.77;10.77;;;15.80;99.90;;;;;;5304297;22;20065;-35
2023/09/02 04:38:10;;;;;;;14.90;11.00;;;15.80;99.90;;;;;;5047311;28;20048;-35
2023/09/02 04:40:40;;;;;;;12.85;9.82;;;15.80;99.90;;;;;;5314223;22;20052;-89
2023/09/02 04:43:08;;;;;;;15.23;11.15;;;15.80;99.90;;;;;;5029779;28;20422;-89
2023/09/02 04:45:35;;;;;;;16.38;11.50;;;15.80;99.90;;;;;;5080988;22;20496;-35
2023/09/02 04:48:02;;;;;;;16.50;11.60;;;15.80;99.90;;;;;;5020926;28;20049;-34
2023/09/02 04:50:28;;;;;;;15.63;10.73;;;15.80;99.90;;;;;;5201088;22;20084;-34
2023/09/02 04:52:56;;;;;;;18.92;11.73;;;15.80;99.90;;;;;;5045102;28;20243;-34
2023/09/02 04:55:25;;;;;;;14.63;10.35;;;15.80;99.90;;;;;;5257990;22;20659;-91
2023/09/02 04:57:52;;;;;;;16.75;10.90;;;15.80;99.90;;;;;;5012211;28;20069;-88
2023/09/02 05:00:21;;;;;;;16.90;11.25;;;15.80;99.90;;;;;;5013313;28;20067;-90
2023/09/02 05:02:47;;;;;;;18.42;12.93;;;15.80;99.90;;;;;;5030608;28;20068;-87
2023/09/02 05:05:14;;;;;;;16.50;11.88;;;15.80;99.90;;;;;;5271526;22;20072;-34
2023/09/02 05:10:27;;;;;;;15.85;10.57;;;15.80;99.90;;;;;;5209963;22;20084;-34
2023/09/02 05:15:28;;;;;;;14.68;10.77;;;15.80;99.90;;;;;;5185858;22;20588;-34
2023/09/02 05:20:29;;;;;;;19.05;13.02;;;15.80;99.90;;;;;;5055286;22;20068;-35
2023/09/02 05:22:55;;;;;;;17.92;13.43;;;15.80;99.90;;;;;;5179855;22;20020;-88
2023/09/02 05:25:22;;;;;;;19.88;11.02;;;15.80;99.90;;;;;;5025933;28;20069;-88
2023/09/02 05:27:48;;;;;;;16.48;11.73;;;15.80;99.90;;;;;;5027878;28;20573;-85
2023/09/02 05:30:14;;;;;;;15.85;11.73;;;15.80;99.90;;;;;;5156039;22;20072;-34
2023/09/02 05:32:39;;;;;;;15.07;10.63;;;15.80;99.90;;;;;;5154581;22;20061;-34
2023/09/02 05:35:05;;;;;;;14.63;10.48;;;15.80;99.90;;;;;;5024480;28;20052;-34
2023/09/02 05:37:31;;;;;;;18.27;11.15;;;15.80;99.90;;;;;;5282978;22;20331;-85
2023/09/02 05:40:00;;;;;;;15.98;10.98;;;15.80;99.90;;;;;;5040910;28;20048;-86
2023/09/02 05:44:54;;;;;;;16.98;11.57;;;15.80;99.90;;;;;;4980213;28;20058;-35
2023/09/02 05:47:20;;;;;;;19.23;11.98;;;15.90;99.90;;;;;;5342932;22;20064;-34
2023/09/02 05:49:46;;;;;;;15.65;11.25;;;15.90;99.90;;;;;;5037410;28;20053;-35
2023/09/02 05:52:11;;;;;;;16.25;11.23;;;15.90;99.90;;;;;;5042110;22;20050;-34
2023/09/02 05:54:37;;;;;;;17.10;11.85;;;15.90;99.90;;;;;;5018671;28;20045;-35
2023/09/02 05:57:03;;;;;;;13.57;9.98;;;15.80;99.90;;;;;;5302235;22;20065;-89
2023/09/02 05:59:30;;;;;;;16.98;12.02;;;15.90;99.90;;;;;;4981592;28;20076;-91
2023/09/02 06:04:25;;;;;;;17.88;11.68;;;15.90;99.90;;;;;;5020533;28;19925;-35
2023/09/02 06:06:50;;;;;;;14.57;10.65;;;15.90;99.90;;;;;;5245872;22;20065;-37
2023/09/02 06:09:16;;;;;;;16.65;11.02;;;15.90;99.90;;;;;;4988476;28;20112;-37
2023/09/02 06:11:42;;;;;;;19.45;12.75;;;15.90;99.90;;;;;;5264771;23;20121;-36
2023/09/02 06:14:08;;;;;;;18.00;11.80;;;15.90;99.90;;;;;;5046140;28;20053;-36
2023/09/02 06:16:33;;;;;;;15.38;10.90;;;16.00;99.90;;;;;;5368047;22;20054;-36
2023/09/02 06:18:59;;;;;;;17.75;12.68;;;16.00;99.90;;;;;;5005916;28;20049;-36
2023/09/02 06:21:25;;;;;;;17.15;12.25;;;16.00;99.90;;;;;;5251541;23;20148;-36
2023/09/02 06:23:50;;;;;;;16.15;11.60;;;16.00;99.90;;;;;;5020088;28;20465;-36
2023/09/02 06:26:16;;;;;;;16.85;12.23;;;16.10;99.90;;;;;;5181044;22;20418;-35
2023/09/02 06:28:43;;;;;;;15.38;11.43;;;16.10;99.90;;;;;;5017340;28;20457;-36
2023/09/02 06:31:10;;;;;;;16.02;11.70;;;16.10;99.90;;;;;;5379517;22;20183;-36
2023/09/02 06:33:36;;;;;;;16.70;12.15;;;16.10;99.90;;;;;;5028293;28;20808;-34
2023/09/02 06:36:12;;;;;;;19.50;12.48;;;16.10;99.90;;;;;;5043735;22;20046;-35
2023/09/02 06:41:17;;;;;;;16.50;10.75;;;16.20;99.90;;;;;;5025056;23;20398;-34
2023/09/02 06:48:46;;;;;;;16.65;10.93;;;16.10;99.90;;;;;;5017663;22;21040;-86
2023/09/02 06:51:13;;;;;;;15.48;10.25;;;16.10;99.90;;;;;;5234318;23;20062;-35
2023/09/02 06:53:40;;;;;;;15.35;10.02;;;16.10;99.90;;;;;;5085944;23;20137;-37
2023/09/02 06:56:08;;;;;;;15.10;10.27;;;16.10;99.90;;;;;;5000692;28;20053;-36
2023/09/02 06:58:34;;;;;;;13.98;9.48;;;16.10;99.90;;;;;;5080508;22;20581;-36
2023/09/02 07:00:59;;;;;;;14.15;9.98;;;16.10;99.90;;;;;;5036048;28;20497;-36
2023/09/02 07:03:26;;;;;;;17.33;11.27;;;16.10;99.90;;;;;;5400837;22;20083;-84
2023/09/02 07:05:52;;;;;;;18.73;11.23;;;16.10;99.90;;;;;;5020794;28;20057;-85
2023/09/02 07:08:21;;;;;;;14.85;9.48;;;16.20;99.90;;;;;;5021469;28;20051;-84
2023/09/02 07:10:51;;;;;;;14.40;10.73;;;16.20;99.90;;;;;;5026260;28;20050;-84
2023/09/02 07:13:16;;;;;;;20.02;12.23;;;16.20;99.90;;;;;;5008501;28;20553;-85
2023/09/02 07:15:42;;;;;;;17.10;11.00;;;16.30;99.90;;;;;;4995010;28;20136;-84
2023/09/02 07:18:14;;;;;;;16.05;10.85;;;16.40;99.90;;;;;;4990226;28;20104;-84
2023/09/02 07:20:44;;;;;;;17.25;11.18;;;16.40;99.90;;;;;;5024726;28;20563;-92
2023/09/02 07:23:09;;;;;;;16.30;10.80;;;16.50;99.90;;;;;;5023640;28;20121;-90
2023/09/02 07:25:35;;;;;;;15.65;10.75;;;16.60;99.90;;;;;;5018326;28;20076;-92
2023/09/02 07:28:01;;;;;;;16.63;11.32;;;16.60;99.90;;;;;;5033306;28;20065;-86
2023/09/02 07:30:26;;;;;;;14.52;10.38;;;16.70;99.90;;;;;;5049105;22;20112;-35
2023/09/02 07:32:52;;;;;;;17.65;11.35;;;16.70;99.90;;;;;;5022717;22;20046;-35
2023/09/02 07:35:18;;;;;;;16.02;11.85;;;16.80;99.90;;;;;;5000810;28;20070;-35
2023/09/02 07:37:44;;;;;;;15.02;11.27;;;16.80;99.90;;;;;;5272278;23;20053;-85
2023/09/02 07:40:13;;;;;;;15.27;10.82;;;16.80;99.90;;;;;;4980238;28;20046;-84
2023/09/02 07:45:08;;;;;;;17.13;11.10;;;17.00;99.90;;;;;;4989791;28;20119;-34
2023/09/02 07:47:34;;;;;;;17.05;11.88;;;17.00;99.90;;;;;;5162131;22;20068;-35
2023/09/02 07:50:00;;;;;;;17.13;11.18;;;17.10;99.90;;;;;;5015503;28;20462;-35
2023/09/02 07:52:25;;;;;;;16.70;11.45;;;17.20;99.90;;;;;;5171417;22;20409;-84
2023/09/02 07:54:51;;;;;;;17.92;10.23;;;17.30;99.90;;;;;;4990029;28;20144;-85
2023/09/02 07:57:17;;;;;;;19.98;12.15;;;17.30;99.90;;;;;;5285582;22;20025;-34
2023/09/02 08:02:32;;;;;;;14.35;9.77;;;17.40;99.90;;;;;;5214555;22;20120;-35
2023/09/02 08:07:36;;;;;;;16.20;9.50;;;17.50;99.90;;;;;;3580868;23;20076;-36
2023/09/02 08:10:02;;;;;;;18.25;10.77;;;17.50;99.90;;;;;;5170062;22;20246;-35
2023/09/02 08:12:28;;;;;;;15.98;9.82;;;17.60;99.90;;;;;;5017439;28;20567;-35
2023/09/02 08:14:54;;;;;;;14.70;9.75;;;17.60;99.90;;;;;;5171431;22;20045;-35
2023/09/02 08:17:19;;;;;;;13.88;9.13;;;17.60;99.90;;;;;;5025254;28;20052;-35
2023/09/02 08:19:45;;;;;;;15.43;9.05;;;17.60;99.90;;;;;;5296849;22;20525;-36
2023/09/02 08:22:12;;;;;;;14.35;9.60;;;17.70;99.90;;;;;;5000943;28;20045;-36
2023/09/02 08:24:40;;;;;;;16.20;10.63;;;17.70;99.90;;;;;;5181542;22;20061;-90
2023/09/02 08:27:06;;;;;;;13.27;9.50;;;17.70;99.90;;;;;;5025517;28;20079;-91
2023/09/02 08:29:33;;;;;;;15.60;10.50;;;17.60;99.90;;;;;;5069146;22;20496;-35
2023/09/02 08:31:58;;;;;;;17.85;10.82;;;17.60;99.90;;;;;;5024084;28;20068;-36
2023/09/02 08:34:24;;;;;;;15.50;9.88;;;17.60;99.90;;;;;;5086569;22;20648;-35
2023/09/02 08:36:50;;;;;;;18.00;10.60;;;17.60;99.90;;;;;;5038353;28;20136;-36
2023/09/02 08:39:15;;;;;;;16.95;11.18;;;17.60;99.90;;;;;;5156963;22;20111;-35
2023/09/02 08:41:44;;;;;;;13.85;9.70;;;17.50;99.90;;;;;;4999554;28;20053;-35
2023/09/02 08:44:15;;;;;;;14.93;9.77;;;17.50;99.90;;;;;;5028434;22;20042;-35
2023/09/02 08:49:16;;;;;;;15.13;10.80;;;17.60;99.90;;;;;;5020727;28;20127;-35
2023/09/02 08:54:14;;;;;;;16.05;11.75;;;17.60;99.90;;;;;;5022648;28;20056;-37
2023/09/02 08:56:41;;;;;;;14.90;10.07;;;17.70;99.90;;;;;;5265652;22;20016;-37
2023/09/02 08:59:09;;;;;;;15.80;10.88;;;17.80;99.90;;;;;;5045353;28;20056;-36
2023/09/02 09:01:41;;;;;;;14.95;9.40;;;17.90;99.90;;;;;;5295219;22;20044;-36
2023/09/02 09:04:07;;;;;;;16.48;10.98;;;17.90;99.90;;;;;;5042647;28;20057;-36
2023/09/02 09:06:36;;;;;;;15.05;9.98;;;18.00;99.90;;;;;;5339284;22;20813;-35
2023/09/02 09:09:03;;;;;;;14.95;9.85;;;18.10;99.90;;;;;;5020395;28;20057;-35
2023/09/02 09:11:36;;;;;;;15.52;9.45;;;18.20;99.90;;;;;;5196556;22;21127;-35
2023/09/02 09:14:03;;;;;;;18.77;11.18;;;18.30;99.90;;;;;;5004277;28;20057;-36
2023/09/02 09:16:34;;;;;;;16.70;10.57;;;18.40;99.90;;;;;;5248895;22;20053;-83
2023/09/02 09:19:01;;;;;;;14.45;9.80;;;18.50;99.90;;;;;;4990343;28;20549;-84
2023/09/02 09:21:27;;;;;;;15.40;9.80;;;18.50;99.90;;;;;;5131299;22;20028;-37
2023/09/02 09:23:52;;;;;;;12.95;8.73;;;18.60;99.90;;;;;;5043223;28;20094;-36
2023/09/02 09:26:19;;;;;;;14.80;9.68;;;18.70;99.90;;;;;;5314415;22;20056;-35
2023/09/02 09:28:53;;;;;;;14.75;9.02;;;18.80;99.90;;;;;;5037882;28;20156;-35
2023/09/02 09:31:19;;;;;;;13.13;8.60;;;19.00;99.90;;;;;;5302358;22;20050;-36
2023/09/02 09:33:54;;;;;;;12.93;8.55;;;19.10;99.90;;;;;;5018932;28;20065;-37
2023/09/02 09:36:21;;;;;;;12.88;8.30;;;19.30;99.90;;;;;;5290689;22;20049;-35
2023/09/02 09:38:49;;;;;;;14.60;8.73;;;19.40;99.90;;;;;;5035945;28;20053;-35
2023/09/02 09:41:14;;;;;;;13.40;8.00;;;19.50;99.90;;;;;;5038574;22;20128;-35
2023/09/02 09:46:16;;;;;;;11.45;7.93;;;19.80;99.90;;;;;;5229684;22;20103;-35
2023/09/02 09:48:46;;;;;;;10.95;7.13;;;19.80;99.90;;;;;;5127482;22;20060;-36
2023/09/02 09:51:22;;;;;;;10.85;7.88;;;19.80;99.90;;;;;;5019338;28;20056;-36
2023/09/02 09:53:48;;;;;;;8.70;6.15;;;19.90;99.90;;;;;;5215740;22;20100;-35
2023/09/02 09:56:14;;;;;;;10.48;7.00;;;20.10;99.90;;;;;;5002520;28;20180;-36
2023/09/02 09:58:40;;;;;;;11.05;7.10;;;20.10;99.90;;;;;;5288847;22;20340;-35
2023/09/02 10:01:08;;;;;;;11.35;7.82;;;20.20;99.90;;;;;;5016330;28;20104;-35
2023/09/02 10:03:35;;;;;;;11.57;7.50;;;20.20;99.90;;;;;;5037471;22;20132;-34
2023/09/02 10:06:01;;;;;;;13.23;7.57;;;20.30;99.90;;;;;;5015356;28;20401;-34
2023/09/02 10:08:27;;;;;;;13.55;8.52;;;20.40;99.90;;;;;;5302429;22;20449;-36
2023/09/02 10:10:53;;;;;;;11.15;7.45;;;20.50;99.90;;;;;;5019994;28;20077;-37
2023/09/02 10:13:20;;;;;;;13.18;8.82;;;20.60;99.90;;;;;;5228945;22;20100;-35
2023/09/02 10:15:47;;;;;;;13.77;8.60;;;20.80;99.90;;;;;;4959915;28;20125;-35
2023/09/02 10:18:14;;;;;;;13.05;8.80;;;21.00;99.90;;;;;;5137968;23;20528;-35
2023/09/02 10:20:41;;;;;;;14.48;8.50;;;21.00;99.90;;;;;;5016664;28;21128;-35
2023/09/02 10:23:10;;;;;;;12.70;8.15;;;21.00;99.90;;;;;;5160291;22;20074;-34
2023/09/02 10:28:39;;;;;;;17.45;9.38;;;20.90;99.90;;;;;;3388207;22;20136;-36
2023/09/02 10:39:30;;;;;;;17.38;10.40;;;21.20;99.90;;;;;;4662738;26;20050;-85
2023/09/02 10:42:00;;;;;;;14.52;9.15;;;21.10;99.90;;;;;;5005522;28;20054;-88
2023/09/02 10:44:30;;;;;;;15.68;9.80;;;21.00;99.90;;;;;;5410261;22;20095;-34
2023/09/02 10:46:56;;;;;;;17.27;10.20;;;20.80;99.90;;;;;;5020960;28;20198;-34
2023/09/02 10:49:23;;;;;;;13.80;9.70;;;20.70;99.90;;;;;;5185742;22;20066;-34
2023/09/02 10:55:10;;;;;;;12.88;7.72;;;20.70;99.90;;;;;;5289607;22;20025;-35
2023/09/02 11:00:13;;;;;;;10.35;7.88;;;21.40;99.90;;;;;;5059814;23;20129;-84
2023/09/02 11:02:42;;;;;;;12.60;8.50;;;21.60;99.90;;;;;;5050461;28;20028;-86
2023/09/02 11:05:09;;;;;;;12.23;8.18;;;21.70;99.90;;;;;;5447075;22;20252;-35
2023/09/02 11:07:47;;;;;;;14.88;9.05;;;21.70;99.90;;;;;;5353367;22;20679;-35
2023/09/02 11:10:13;;;;;;;12.27;7.97;;;21.70;99.90;;;;;;5017478;28;20088;-36
2023/09/02 11:13:00;;;;;;;11.63;7.85;;;21.60;99.90;;;;;;5083296;22;20163;-36
2023/09/02 11:15:30;;;;;;;11.95;7.40;;;21.60;99.90;;;;;;5030664;28;20121;-35
2023/09/02 11:17:55;;;;;;;12.90;8.07;;;21.50;99.90;;;;;;5389127;22;20062;-34
2023/09/02 11:20:26;;;;;;;15.82;8.82;;;21.40;99.90;;;;;;5014718;28;20968;-35
2023/09/02 11:23:01;;;;;;;14.77;8.73;;;21.40;99.90;;;;;;5338935;22;20040;-35
2023/09/02 11:25:34;;;;;;;12.27;8.07;;;21.40;99.90;;;;;;5017853;28;20056;-35
2023/09/02 11:28:02;;;;;;;12.55;7.63;;;21.50;99.90;;;;;;5186147;22;20057;-34
2023/09/02 11:30:30;;;;;;;9.93;6.82;;;21.60;99.90;;;;;;5018963;28;20541;-36
2023/09/02 11:32:59;;;;;;;9.60;6.57;;;21.80;99.90;;;;;;5169648;22;20072;-87
2023/09/02 11:35:30;;;;;;;13.65;7.05;;;22.00;99.90;;;;;;4972384;28;20354;-85
2023/09/02 11:37:56;;;;;;;13.82;6.78;;;22.10;99.90;;;;;;5020819;22;20045;-36
2023/09/02 11:40:24;;;;;;;13.23;6.78;;;22.00;99.90;;;;;;5025112;28;20580;-36
2023/09/02 11:42:55;;;;;;;11.93;7.65;;;22.00;99.90;;;;;;5048817;22;20060;-36
2023/09/02 11:47:58;;;;;;;9.93;6.47;;;22.00;99.90;;;;;;4978926;28;20051;-36
2023/09/02 11:52:59;;;;;;;9.18;5.43;;;22.10;99.90;;;;;;5113325;22;20072;-35
2023/09/02 11:55:28;;;;;;;7.60;5.35;;;22.30;99.90;;;;;;5051919;22;20052;-85
2023/09/02 11:57:54;;;;;;;8.60;5.40;;;22.60;99.90;;;;;;5138443;22;20077;-35
2023/09/02 12:02:50;;;;;;;7.80;4.75;;;23.20;99.90;;;;;;5005391;28;20038;-35
2023/09/02 12:07:45;;;;;;;11.00;5.68;;;23.70;99.90;;;;;;5004054;28;20110;-35
2023/09/02 12:10:13;;;;;;;10.45;6.05;;;23.80;99.90;;;;;;5105287;22;20045;-35
2023/09/02 12:12:43;;;;;;;12.75;6.28;;;23.90;99.90;;;;;;5023112;28;20163;-35
2023/09/02 12:15:17;;;;;;;8.73;5.82;;;23.80;99.90;;;;;;5302403;22;20053;-34
2023/09/02 12:17:44;;;;;;;10.25;5.15;;;23.90;99.90;;;;;;5041793;28;20540;-34
2023/09/02 12:20:12;;;;;;;11.18;5.60;;;24.00;99.90;;;;;;5182619;22;20062;-35
2023/09/02 12:22:38;;;;;;;6.95;4.88;;;24.10;99.90;;;;;;4982714;28;20058;-35
2023/09/02 12:25:15;;;;;;;8.75;5.13;;;24.00;99.90;;;;;;5175153;22;20064;-35
2023/09/02 12:27:41;;;;;;;7.35;4.57;;;23.90;99.90;;;;;;5025206;28;20057;-35
2023/09/02 12:30:07;;;;;;;8.63;5.20;;;23.60;99.90;;;;;;5279571;22;20049;-34
2023/09/02 12:32:32;;;;;;;7.63;4.00;;;23.40;99.90;;;;;;5067983;28;20076;-35
2023/09/02 12:34:58;;;;;;;8.70;4.15;;;23.20;99.90;;;;;;5274960;22;20061;-35
2023/09/02 12:37:24;;;;;;;5.78;3.72;;;23.10;99.90;;;;;;5051560;28;20048;-34
2023/09/02 12:39:50;;;;;;;8.20;4.05;;;23.00;99.90;;;;;;5294418;22;20050;-38
2023/09/02 12:42:17;;;;;;;5.50;3.78;;;23.00;99.90;;;;;;5050320;28;20037;-36
2023/09/02 12:44:59;;;;;;;7.18;4.25;;;23.10;99.90;;;;;;5272063;22;20437;-35
2023/09/02 12:50:08;;;;;;;7.10;3.58;;;23.50;99.90;;;;;;5102513;22;20045;-90
2023/09/02 12:52:35;;;;;;;6.78;3.47;;;23.90;99.90;;;;;;5025348;28;20477;-88
2023/09/02 12:55:05;;;;;;;4.28;3.20;;;24.30;99.90;;;;;;5318495;22;20076;-36
2023/09/02 12:57:35;;;;;;;7.07;3.90;;;24.70;99.90;;;;;;5223188;22;20016;-35
2023/09/02 13:00:03;;;;;;;5.60;3.45;;;25.10;99.90;;;;;;5026050;28;20554;-35
2023/09/02 13:02:29;;;;;;;6.13;3.17;;;25.40;99.90;;;;;;5335098;22;20245;-36
2023/09/02 13:04:58;;;;;;;7.20;3.45;;;25.60;99.90;;;;;;5023403;28;20074;-35
2023/09/02 13:07:24;;;;;;;6.90;3.97;;;25.70;99.90;;;;;;5193220;22;20048;-36
2023/09/02 13:09:52;;;;;;;7.15;3.42;;;25.80;99.90;;;;;;5046714;28;20513;-36
2023/09/02 13:12:18;;;;;;;5.28;3.30;;;25.60;99.90;;;;;;5174820;22;20206;-35
2023/09/02 13:14:43;;;;;;;6.82;3.83;;;25.40;99.90;;;;;;5028818;28;20061;-36
2023/09/02 13:17:13;;;;;;;5.22;3.47;;;25.20;99.90;;;;;;5303926;22;20567;-36
2023/09/02 13:19:39;;;;;;;6.55;3.72;;;25.10;99.90;;;;;;5024909;28;20057;-36
2023/09/02 13:22:05;;;;;;;9.32;3.72;;;25.00;99.90;;;;;;5045816;22;20063;-36
2023/09/02 13:24:31;;;;;;;5.45;4.00;;;25.00;99.90;;;;;;5044057;28;20152;-36
2023/09/02 13:26:59;;;;;;;8.10;3.80;;;24.80;99.90;;;;;;5271854;22;20849;-37
2023/09/02 13:29:27;;;;;;;8.15;3.65;;;24.60;99.90;;;;;;5015701;28;20152;-36
2023/09/02 13:31:53;;;;;;;7.55;3.85;;;24.50;99.90;;;;;;5289465;22;20566;-35
2023/09/02 13:34:29;;;;;;;4.68;3.33;;;24.40;99.90;;;;;;4982689;28;20112;-35
2023/09/02 13:37:25;;;;;;;6.13;3.80;;;24.50;99.90;;;;;;5364517;23;20040;-36
2023/09/02 13:40:11;;;;;;;5.90;3.50;;;25.20;99.90;;;;;;5057796;22;20489;-36
2023/09/02 13:42:37;;;;;;;7.72;3.53;;;26.30;99.90;;;;;;4999466;28;20050;-37
2023/09/02 13:45:26;;;;;;;7.78;3.60;;;27.20;99.90;;;;;;5295398;22;20031;-37
2023/09/02 13:47:52;;;;;;;5.65;3.25;;;27.90;99.90;;;;;;5026013;28;20045;-36
2023/09/02 13:50:18;;;;;;;6.50;3.08;;;28.50;99.90;;;;;;5223363;22;20415;-34
2023/09/02 13:52:50;;;;;;;5.68;3.05;;;28.90;99.90;;;;;;5064286;28;20137;-34
2023/09/02 13:55:36;;;;;;;5.55;2.70;;;29.40;99.90;;;;;;5304432;22;20408;-35
2023/09/02 13:58:02;;;;;;;6.90;3.22;;;29.80;99.90;;;;;;5052993;28;20052;-36
2023/09/02 14:00:31;;;;;;;5.63;3.55;;;30.40;99.90;;;;;;5032814;22;20064;-35
2023/09/02 14:05:37;;;;;;;6.78;4.28;;;31.00;99.90;;;;;;5195158;22;20384;-34
2023/09/02 14:10:39;;;;;;;4.18;3.70;;;31.40;99.90;;;;;;5148840;22;20053;-35